Terminal Aerodrome Forecast
Issued by NWS

Home | Current Version | Previous Version | Graphics & Text | Print | Product List | Glossary On
Versions: 1 2 3 4 5 6 7 8 9 10 11 12 13 14 15 16 17 18 19 20 21
000
FTUS43 KGRB 271128
TAFCWA
TAF
KCWA 271128Z 2712/2812 33010KT 4SM RA SCT003 OVC009
      TEMPO 2712/2714 2SM -RASN BR BKN003
     FM271400 30011G19KT 3SM -RASN OVC008
     FM271600 28013G21KT 6SM -SNDZ OVC010
     FM272000 26012G19KT P6SM OVC016
     FM280400 25009KT P6SM BKN018
     FM280700 25007KT P6SM SCT024=

USA.gov is the U.S. government's official web portal to all federal, state and local government web resources and services.